Terminal Aerodrome Forecast
Issued by NWS Cleveland, OH

Home | Current Version | Previous Version | Graphics & Text | Print | Product List | Glossary On
Versions: 1 2 3 4 5 6 7 8 9 10 11 12 13
222
FTUS41 KCLE 252057 AAA
TAFTOL
TAF AMD
KTOL 252057Z 2521/2618 20010KT P6SM BKN080
     FM260000 20005KT P6SM SCT080
     FM260800 VRB03KT P6SM VCTS SCT025CB OVC080
     FM261000 VRB03KT 4SM -TSRA OVC025CB
     FM261100 VRB03KT 4SM BR BKN035
     FM261400 22005KT P6SM BKN080=

USA.gov is the U.S. government's official web portal to all federal, state and local government web resources and services.